Current | Forecast
Updated: 3:30 AM EET on December 11, 2017
Observed at Dnipropetrovs'k, Ukraine
Temperature 1°C
Windchill -6°C
Humidity 81%
Dew Point -2°C
Wind WSW at 36 km/h
Wind Gust 58 km/h
Pressure 1010 hPa (Rising)
Conditions Mostly Cloudy
Visibility 10.0 kilometers
UV 0 out of 16
Clouds Mostly Cloudy (BKN) : 518 m
Mostly Cloudy (BKN) : 792 m
Yesterday's Maximum 11°C
Yesterday's Minimum 1°C approx.
Yesterday's Heating Degree Days 22 approx.
Sunrise7:22 AM EET
Sunset3:43 PM EET
Moon Rise
Moon Set12:44 PM EET
Moon PhaseMoon Phase
Last Quarter
Raw METARMETAR UKDD 110130Z 25010G16MPS 9999 BKN017CB BKN026 01/M02 Q1010 R26/220354 TEMPO 24012G17MPS 1100 SHSN BKN003 BKN012CB


Monday
. High: 62° F.
Tuesday
. High: 62° F.
Wednesday
. High: 64° F.
Thursday
. High: 64° F.
Friday
. High: 64° F.
Saturday
. High: 57° F.
Sunday
. High: 62° F.
Monday
. High: 64° F.

Units: English | Metric

Find the Weather for any City, State or Zipcode, or Country:

U.S. State List | Severe Weather | Tropical Storms | Ski Conditions
United States | Canada | Central America | South America | Asia | Europe | Australia | Africa | Islands

Weather Underground

© Copyright 2017
The Weather Company, LLC